sensor_id;sensor_type;location;lat;lon;timestamp;temperature;humidity
65637;DHT22;52327;42.622;23.316;2022-07-23T00:01:16;21.43;41.35
65637;DHT22;52327;42.622;23.316;2022-07-23T00:03:42;21.49;41.82
65637;DHT22;52327;42.622;23.316;2022-07-23T00:06:07;21.57;42.65
65637;DHT22;52327;42.622;23.316;2022-07-23T00:08:33;21.50;43.50
65637;DHT22;52327;42.622;23.316;2022-07-23T00:10:58;21.59;43.26
65637;DHT22;52327;42.622;23.316;2022-07-23T00:13:23;21.52;42.61
65637;DHT22;52327;42.622;23.316;2022-07-23T00:15:49;21.45;44.22
65637;DHT22;52327;42.622;23.316;2022-07-23T00:18:14;21.46;42.49
65637;DHT22;52327;42.622;23.316;2022-07-23T00:20:40;21.36;41.97
65637;DHT22;52327;42.622;23.316;2022-07-23T00:23:05;21.38;41.18
65637;DHT22;52327;42.622;23.316;2022-07-23T00:25:31;21.43;41.26
65637;DHT22;52327;42.622;23.316;2022-07-23T00:27:57;21.42;41.41
65637;DHT22;52327;42.622;23.316;2022-07-23T00:30:23;21.41;41.74
65637;DHT22;52327;42.622;23.316;2022-07-23T00:32:51;21.55;42.99
65637;DHT22;52327;42.622;23.316;2022-07-23T00:35:20;21.42;43.07
65637;DHT22;52327;42.622;23.316;2022-07-23T00:37:46;21.15;43.45
65637;DHT22;52327;42.622;23.316;2022-07-23T00:40:12;20.96;44.45
65637;DHT22;52327;42.622;23.316;2022-07-23T00:42:39;20.85;45.18
65637;DHT22;52327;42.622;23.316;2022-07-23T00:45:04;20.80;45.39
65637;DHT22;52327;42.622;23.316;2022-07-23T00:47:30;20.67;45.46
65637;DHT22;52327;42.622;23.316;2022-07-23T00:49:55;20.58;45.98
65637;DHT22;52327;42.622;23.316;2022-07-23T00:52:21;20.33;46.59
65637;DHT22;52327;42.622;23.316;2022-07-23T00:54:47;20.19;46.60
65637;DHT22;52327;42.622;23.316;2022-07-23T00:57:12;20.10;46.68
65637;DHT22;52327;42.622;23.316;2022-07-23T00:59:38;19.97;46.90
65637;DHT22;52327;42.622;23.316;2022-07-23T01:02:04;19.82;47.67
65637;DHT22;52327;42.622;23.316;2022-07-23T01:04:30;19.66;48.53
65637;DHT22;52327;42.622;23.316;2022-07-23T01:06:55;19.55;48.81
65637;DHT22;52327;42.622;23.316;2022-07-23T01:09:21;19.52;49.63
65637;DHT22;52327;42.622;23.316;2022-07-23T01:11:46;19.55;48.24
65637;DHT22;52327;42.622;23.316;2022-07-23T01:14:14;19.66;48.33
65637;DHT22;52327;42.622;23.316;2022-07-23T01:16:41;19.61;48.02
65637;DHT22;52327;42.622;23.316;2022-07-23T01:19:07;19.49;49.16
65637;DHT22;52327;42.622;23.316;2022-07-23T01:21:38;19.47;48.53
65637;DHT22;52327;42.622;23.316;2022-07-23T01:24:04;19.49;47.97
65637;DHT22;52327;42.622;23.316;2022-07-23T01:26:30;19.52;47.80
65637;DHT22;52327;42.622;23.316;2022-07-23T01:28:55;19.57;47.54
65637;DHT22;52327;42.622;23.316;2022-07-23T01:31:21;19.59;47.70
65637;DHT22;52327;42.622;23.316;2022-07-23T01:33:46;19.57;47.84
65637;DHT22;52327;42.622;23.316;2022-07-23T01:36:12;19.48;48.20
65637;DHT22;52327;42.622;23.316;2022-07-23T01:38:37;19.49;47.99
65637;DHT22;52327;42.622;23.316;2022-07-23T01:41:02;19.52;47.99
65637;DHT22;52327;42.622;23.316;2022-07-23T01:43:28;19.48;48.51
65637;DHT22;52327;42.622;23.316;2022-07-23T01:45:53;19.49;48.29
65637;DHT22;52327;42.622;23.316;2022-07-23T01:48:19;19.48;48.32
65637;DHT22;52327;42.622;23.316;2022-07-23T01:50:46;19.38;48.36
65637;DHT22;52327;42.622;23.316;2022-07-23T01:53:12;19.34;48.09
65637;DHT22;52327;42.622;23.316;2022-07-23T01:55:38;19.31;48.54
65637;DHT22;52327;42.622;23.316;2022-07-23T01:58:03;19.31;48.09
65637;DHT22;52327;42.622;23.316;2022-07-23T02:00:29;19.38;47.52
65637;DHT22;52327;42.622;23.316;2022-07-23T02:02:54;19.45;47.30
65637;DHT22;52327;42.622;23.316;2022-07-23T02:05:19;19.47;47.49
65637;DHT22;52327;42.622;23.316;2022-07-23T02:07:45;19.41;47.81
65637;DHT22;52327;42.622;23.316;2022-07-23T02:10:10;19.36;48.20
65637;DHT22;52327;42.622;23.316;2022-07-23T02:12:36;19.36;48.14
65637;DHT22;52327;42.622;23.316;2022-07-23T02:15:02;19.39;48.52
65637;DHT22;52327;42.622;23.316;2022-07-23T02:17:27;19.39;48.61
65637;DHT22;52327;42.622;23.316;2022-07-23T02:19:52;19.42;48.30
65637;DHT22;52327;42.622;23.316;2022-07-23T02:22:18;19.51;48.36
65637;DHT22;52327;42.622;23.316;2022-07-23T02:24:43;19.61;50.23
65637;DHT22;52327;42.622;23.316;2022-07-23T02:27:09;19.66;45.74
65637;DHT22;52327;42.622;23.316;2022-07-23T02:29:34;19.87;45.24
65637;DHT22;52327;42.622;23.316;2022-07-23T02:31:59;19.99;45.44
65637;DHT22;52327;42.622;23.316;2022-07-23T02:34:25;20.09;46.00
65637;DHT22;52327;42.622;23.316;2022-07-23T02:36:50;20.16;46.60
65637;DHT22;52327;42.622;23.316;2022-07-23T02:39:16;20.12;46.63
65637;DHT22;52327;42.622;23.316;2022-07-23T02:41:41;20.09;47.91
65637;DHT22;52327;42.622;23.316;2022-07-23T02:44:06;19.93;49.26
65637;DHT22;52327;42.622;23.316;2022-07-23T02:46:32;19.79;48.97
65637;DHT22;52327;42.622;23.316;2022-07-23T02:48:57;19.75;49.50
65637;DHT22;52327;42.622;23.316;2022-07-23T02:51:23;19.58;48.11
65637;DHT22;52327;42.622;23.316;2022-07-23T02:53:48;19.45;49.18
65637;DHT22;52327;42.622;23.316;2022-07-23T02:56:13;19.36;48.71
65637;DHT22;52327;42.622;23.316;2022-07-23T02:58:39;19.36;48.45
65637;DHT22;52327;42.622;23.316;2022-07-23T03:01:05;19.47;46.82
65637;DHT22;52327;42.622;23.316;2022-07-23T03:03:30;19.65;47.17
65637;DHT22;52327;42.622;23.316;2022-07-23T03:05:56;19.69;46.53
65637;DHT22;52327;42.622;23.316;2022-07-23T03:08:22;19.81;45.84
65637;DHT22;52327;42.622;23.316;2022-07-23T03:10:47;19.82;47.22
65637;DHT22;52327;42.622;23.316;2022-07-23T03:13:13;19.73;47.32
65637;DHT22;52327;42.622;23.316;2022-07-23T03:15:38;19.63;48.17
65637;DHT22;52327;42.622;23.316;2022-07-23T03:18:04;19.61;48.39
65637;DHT22;52327;42.622;23.316;2022-07-23T03:20:29;19.44;49.28
65637;DHT22;52327;42.622;23.316;2022-07-23T03:22:55;19.32;49.76
65637;DHT22;52327;42.622;23.316;2022-07-23T03:25:20;19.28;50.10
65637;DHT22;52327;42.622;23.316;2022-07-23T03:27:46;19.28;51.00
65637;DHT22;52327;42.622;23.316;2022-07-23T03:30:11;19.21;51.58
65637;DHT22;52327;42.622;23.316;2022-07-23T03:32:37;19.11;51.23
65637;DHT22;52327;42.622;23.316;2022-07-23T03:35:03;19.12;51.46
65637;DHT22;52327;42.622;23.316;2022-07-23T03:37:29;19.20;51.28
65637;DHT22;52327;42.622;23.316;2022-07-23T03:39:54;19.30;49.54
65637;DHT22;52327;42.622;23.316;2022-07-23T03:42:20;19.51;51.43
65637;DHT22;52327;42.622;23.316;2022-07-23T03:44:45;19.51;52.67
65637;DHT22;52327;42.622;23.316;2022-07-23T03:47:17;19.59;51.33
65637;DHT22;52327;42.622;23.316;2022-07-23T03:49:42;19.52;53.68
65637;DHT22;52327;42.622;23.316;2022-07-23T03:52:08;19.62;51.74
65637;DHT22;52327;42.622;23.316;2022-07-23T03:54:33;19.81;52.55
65637;DHT22;52327;42.622;23.316;2022-07-23T03:56:59;19.90;52.28
65637;DHT22;52327;42.622;23.316;2022-07-23T03:59:24;19.85;53.21
65637;DHT22;52327;42.622;23.316;2022-07-23T04:01:50;19.69;55.26
65637;DHT22;52327;42.622;23.316;2022-07-23T04:04:15;19.79;55.04
65637;DHT22;52327;42.622;23.316;2022-07-23T04:06:41;19.83;54.54
65637;DHT22;52327;42.622;23.316;2022-07-23T04:09:06;19.90;54.29
65637;DHT22;52327;42.622;23.316;2022-07-23T04:11:32;20.05;55.49
65637;DHT22;52327;42.622;23.316;2022-07-23T04:13:57;20.16;55.86
65637;DHT22;52327;42.622;23.316;2022-07-23T04:16:22;20.19;55.90
65637;DHT22;52327;42.622;23.316;2022-07-23T04:18:48;20.26;56.17
65637;DHT22;52327;42.622;23.316;2022-07-23T04:21:13;20.29;53.98
65637;DHT22;52327;42.622;23.316;2022-07-23T04:23:39;20.37;54.12
65637;DHT22;52327;42.622;23.316;2022-07-23T04:26:04;20.51;55.02
65637;DHT22;52327;42.622;23.316;2022-07-23T04:28:30;20.58;55.28
65637;DHT22;52327;42.622;23.316;2022-07-23T04:30:56;20.74;55.93
65637;DHT22;52327;42.622;23.316;2022-07-23T04:33:22;20.87;56.26
65637;DHT22;52327;42.622;23.316;2022-07-23T04:35:48;20.96;56.46
65637;DHT22;52327;42.622;23.316;2022-07-23T04:38:13;20.92;55.88
65637;DHT22;52327;42.622;23.316;2022-07-23T04:40:39;20.98;54.92
65637;DHT22;52327;42.622;23.316;2022-07-23T04:43:04;20.96;55.60
65637;DHT22;52327;42.622;23.316;2022-07-23T04:45:30;21.12;54.53
65637;DHT22;52327;42.622;23.316;2022-07-23T04:47:55;21.14;52.57
65637;DHT22;52327;42.622;23.316;2022-07-23T04:50:22;21.29;53.70
65637;DHT22;52327;42.622;23.316;2022-07-23T04:52:48;21.39;54.69
65637;DHT22;52327;42.622;23.316;2022-07-23T04:55:14;21.49;54.78
65637;DHT22;52327;42.622;23.316;2022-07-23T04:57:39;21.49;56.15
65637;DHT22;52327;42.622;23.316;2022-07-23T05:00:05;21.38;55.83
65637;DHT22;52327;42.622;23.316;2022-07-23T05:02:31;21.28;55.56
65637;DHT22;52327;42.622;23.316;2022-07-23T05:04:57;21.22;55.77
65637;DHT22;52327;42.622;23.316;2022-07-23T05:07:22;21.31;53.01
65637;DHT22;52327;42.622;23.316;2022-07-23T05:09:48;21.41;54.50
65637;DHT22;52327;42.622;23.316;2022-07-23T05:12:13;21.31;53.56
65637;DHT22;52327;42.622;23.316;2022-07-23T05:14:39;21.46;51.90
65637;DHT22;52327;42.622;23.316;2022-07-23T05:17:04;21.62;52.38
65637;DHT22;52327;42.622;23.316;2022-07-23T05:19:29;21.73;52.54
65637;DHT22;52327;42.622;23.316;2022-07-23T05:21:58;21.84;50.05
65637;DHT22;52327;42.622;23.316;2022-07-23T05:24:24;21.94;50.32
65637;DHT22;52327;42.622;23.316;2022-07-23T05:26:49;21.93;50.19
65637;DHT22;52327;42.622;23.316;2022-07-23T05:29:15;21.84;50.22
65637;DHT22;52327;42.622;23.316;2022-07-23T05:31:40;21.93;50.68
65637;DHT22;52327;42.622;23.316;2022-07-23T05:34:08;21.97;51.28
65637;DHT22;52327;42.622;23.316;2022-07-23T05:36:47;22.07;51.62
65637;DHT22;52327;42.622;23.316;2022-07-23T05:39:14;22.17;50.76
65637;DHT22;52327;42.622;23.316;2022-07-23T05:41:39;22.33;50.50
65637;DHT22;52327;42.622;23.316;2022-07-23T05:44:04;22.48;50.56
65637;DHT22;52327;42.622;23.316;2022-07-23T05:46:30;22.61;50.85
65637;DHT22;52327;42.622;23.316;2022-07-23T05:48:55;22.75;50.44
65637;DHT22;52327;42.622;23.316;2022-07-23T05:51:22;22.81;49.51
65637;DHT22;52327;42.622;23.316;2022-07-23T05:53:48;22.65;50.37
65637;DHT22;52327;42.622;23.316;2022-07-23T05:56:13;22.56;50.44
65637;DHT22;52327;42.622;23.316;2022-07-23T05:58:39;22.69;49.39
65637;DHT22;52327;42.622;23.316;2022-07-23T06:01:05;22.89;49.47
65637;DHT22;52327;42.622;23.316;2022-07-23T06:03:30;23.07;49.63
65637;DHT22;52327;42.622;23.316;2022-07-23T06:05:55;23.10;49.99
65637;DHT22;52327;42.622;23.316;2022-07-23T06:08:21;23.15;50.17
65637;DHT22;52327;42.622;23.316;2022-07-23T06:10:46;23.27;50.33
65637;DHT22;52327;42.622;23.316;2022-07-23T06:13:12;23.27;49.14
65637;DHT22;52327;42.622;23.316;2022-07-23T06:15:37;23.39;49.97
65637;DHT22;52327;42.622;23.316;2022-07-23T06:18:03;23.54;49.27
65637;DHT22;52327;42.622;23.316;2022-07-23T06:20:28;23.51;50.09
65637;DHT22;52327;42.622;23.316;2022-07-23T06:22:54;23.74;49.67
65637;DHT22;52327;42.622;23.316;2022-07-23T06:25:19;23.67;48.13
65637;DHT22;52327;42.622;23.316;2022-07-23T06:27:46;23.71;48.59
65637;DHT22;52327;42.622;23.316;2022-07-23T06:30:12;23.85;48.29
65637;DHT22;52327;42.622;23.316;2022-07-23T06:32:38;23.96;48.66
65637;DHT22;52327;42.622;23.316;2022-07-23T06:35:04;24.07;48.32
65637;DHT22;52327;42.622;23.316;2022-07-23T06:37:30;24.04;47.45
65637;DHT22;52327;42.622;23.316;2022-07-23T06:39:55;24.00;47.44
65637;DHT22;52327;42.622;23.316;2022-07-23T06:42:21;24.15;47.75
65637;DHT22;52327;42.622;23.316;2022-07-23T06:44:52;24.39;46.23
65637;DHT22;52327;42.622;23.316;2022-07-23T06:47:20;24.59;46.48
65637;DHT22;52327;42.622;23.316;2022-07-23T06:49:46;24.65;46.75
65637;DHT22;52327;42.622;23.316;2022-07-23T06:52:11;24.58;45.90
65637;DHT22;52327;42.622;23.316;2022-07-23T06:54:57;24.43;47.85
65637;DHT22;52327;42.622;23.316;2022-07-23T06:57:22;24.62;47.29
65637;DHT22;52327;42.622;23.316;2022-07-23T06:59:50;24.49;48.33
65637;DHT22;52327;42.622;23.316;2022-07-23T07:02:16;24.72;47.84
65637;DHT22;52327;42.622;23.316;2022-07-23T07:04:41;24.65;47.97
65637;DHT22;52327;42.622;23.316;2022-07-23T07:07:07;24.65;48.30
65637;DHT22;52327;42.622;23.316;2022-07-23T07:09:32;24.82;46.42
65637;DHT22;52327;42.622;23.316;2022-07-23T07:11:58;24.84;46.48
65637;DHT22;52327;42.622;23.316;2022-07-23T07:14:23;24.72;45.88
65637;DHT22;52327;42.622;23.316;2022-07-23T07:16:49;24.90;46.21
65637;DHT22;52327;42.622;23.316;2022-07-23T07:19:14;25.17;45.41
65637;DHT22;52327;42.622;23.316;2022-07-23T07:21:39;25.40;45.31
65637;DHT22;52327;42.622;23.316;2022-07-23T07:24:05;25.47;44.97
65637;DHT22;52327;42.622;23.316;2022-07-23T07:26:31;25.48;45.60
65637;DHT22;52327;42.622;23.316;2022-07-23T07:28:57;25.28;46.03
65637;DHT22;52327;42.622;23.316;2022-07-23T07:31:22;25.44;46.44
65637;DHT22;52327;42.622;23.316;2022-07-23T07:33:48;25.48;45.36
65637;DHT22;52327;42.622;23.316;2022-07-23T07:36:13;25.55;45.57
65637;DHT22;52327;42.622;23.316;2022-07-23T07:38:39;25.74;45.84
65637;DHT22;52327;42.622;23.316;2022-07-23T07:41:04;25.68;45.88
65637;DHT22;52327;42.622;23.316;2022-07-23T07:43:30;25.77;45.60
65637;DHT22;52327;42.622;23.316;2022-07-23T07:45:55;25.78;44.76
65637;DHT22;52327;42.622;23.316;2022-07-23T07:48:21;25.70;45.77
65637;DHT22;52327;42.622;23.316;2022-07-23T07:50:46;25.89;46.46
65637;DHT22;52327;42.622;23.316;2022-07-23T07:53:12;26.11;45.72
65637;DHT22;52327;42.622;23.316;2022-07-23T07:55:37;25.89;44.03
65637;DHT22;52327;42.622;23.316;2022-07-23T07:58:03;26.05;45.12
65637;DHT22;52327;42.622;23.316;2022-07-23T08:00:31;26.13;44.75
65637;DHT22;52327;42.622;23.316;2022-07-23T08:02:58;26.33;45.19
65637;DHT22;52327;42.622;23.316;2022-07-23T08:05:26;26.59;44.58
65637;DHT22;52327;42.622;23.316;2022-07-23T08:07:51;26.67;43.25
65637;DHT22;52327;42.622;23.316;2022-07-23T08:10:18;26.37;44.58
65637;DHT22;52327;42.622;23.316;2022-07-23T08:12:47;26.37;44.32
65637;DHT22;52327;42.622;23.316;2022-07-23T08:15:13;26.47;44.48
65637;DHT22;52327;42.622;23.316;2022-07-23T08:17:40;26.83;43.46
65637;DHT22;52327;42.622;23.316;2022-07-23T08:20:06;27.10;42.75
65637;DHT22;52327;42.622;23.316;2022-07-23T08:25:13;27.32;42.88
65637;DHT22;52327;42.622;23.316;2022-07-23T08:27:39;27.45;41.63
65637;DHT22;52327;42.622;23.316;2022-07-23T08:30:06;27.52;41.09
65637;DHT22;52327;42.622;23.316;2022-07-23T08:32:31;27.45;40.24
65637;DHT22;52327;42.622;23.316;2022-07-23T08:34:56;27.38;41.16
65637;DHT22;52327;42.622;23.316;2022-07-23T08:37:22;27.41;41.09
65637;DHT22;52327;42.622;23.316;2022-07-23T08:39:47;27.56;40.99
65637;DHT22;52327;42.622;23.316;2022-07-23T08:42:16;27.65;39.75
65637;DHT22;52327;42.622;23.316;2022-07-23T08:44:45;27.27;41.72
65637;DHT22;52327;42.622;23.316;2022-07-23T08:47:12;27.34;41.68
65637;DHT22;52327;42.622;23.316;2022-07-23T08:49:39;27.70;40.88
65637;DHT22;52327;42.622;23.316;2022-07-23T08:52:05;27.89;39.53
65637;DHT22;52327;42.622;23.316;2022-07-23T08:54:31;27.86;38.99
65637;DHT22;52327;42.622;23.316;2022-07-23T08:56:57;28.06;38.61
65637;DHT22;52327;42.622;23.316;2022-07-23T08:59:22;28.17;39.10
65637;DHT22;52327;42.622;23.316;2022-07-23T09:01:48;28.17;38.94
65637;DHT22;52327;42.622;23.316;2022-07-23T09:04:13;28.24;38.60
65637;DHT22;52327;42.622;23.316;2022-07-23T09:06:39;28.36;39.19
65637;DHT22;52327;42.622;23.316;2022-07-23T09:09:20;28.39;37.86
65637;DHT22;52327;42.622;23.316;2022-07-23T09:11:47;28.44;38.63
65637;DHT22;52327;42.622;23.316;2022-07-23T09:14:12;28.32;38.09
65637;DHT22;52327;42.622;23.316;2022-07-23T09:16:38;28.61;38.84
65637;DHT22;52327;42.622;23.316;2022-07-23T09:19:05;28.77;37.80
65637;DHT22;52327;42.622;23.316;2022-07-23T09:26:39;29.20;36.99
65637;DHT22;52327;42.622;23.316;2022-07-23T09:29:14;29.20;35.20
65637;DHT22;52327;42.622;23.316;2022-07-23T09:32:00;29.28;35.08
65637;DHT22;52327;42.622;23.316;2022-07-23T09:34:35;29.19;34.71
65637;DHT22;52327;42.622;23.316;2022-07-23T09:37:19;29.08;36.39
65637;DHT22;52327;42.622;23.316;2022-07-23T09:39:46;28.90;36.32
65637;DHT22;52327;42.622;23.316;2022-07-23T09:42:24;29.04;36.67
65637;DHT22;52327;42.622;23.316;2022-07-23T09:44:54;29.29;35.71
65637;DHT22;52327;42.622;23.316;2022-07-23T09:47:22;29.55;33.48
65637;DHT22;52327;42.622;23.316;2022-07-23T09:50:03;29.74;32.96
65637;DHT22;52327;42.622;23.316;2022-07-23T09:52:37;29.80;33.19
65637;DHT22;52327;42.622;23.316;2022-07-23T09:55:07;29.94;31.52
65637;DHT22;52327;42.622;23.316;2022-07-23T09:57:34;30.01;31.23
65637;DHT22;52327;42.622;23.316;2022-07-23T10:00:07;29.94;31.34
65637;DHT22;52327;42.622;23.316;2022-07-23T10:02:40;29.97;30.98
65637;DHT22;52327;42.622;23.316;2022-07-23T10:05:06;29.91;32.12
65637;DHT22;52327;42.622;23.316;2022-07-23T10:07:34;29.96;30.52
65637;DHT22;52327;42.622;23.316;2022-07-23T10:10:04;29.97;31.43
65637;DHT22;52327;42.622;23.316;2022-07-23T10:12:30;29.98;30.73
65637;DHT22;52327;42.622;23.316;2022-07-23T10:15:08;30.23;29.93
65637;DHT22;52327;42.622;23.316;2022-07-23T10:17:34;30.32;31.73
65637;DHT22;52327;42.622;23.316;2022-07-23T10:20:00;30.17;33.66
65637;DHT22;52327;42.622;23.316;2022-07-23T10:22:30;30.14;28.51
65637;DHT22;52327;42.622;23.316;2022-07-23T10:25:08;30.44;28.68
65637;DHT22;52327;42.622;23.316;2022-07-23T10:27:58;30.42;28.61
65637;DHT22;52327;42.622;23.316;2022-07-23T10:39:27;30.58;28.15
65637;DHT22;52327;42.622;23.316;2022-07-23T10:42:11;30.59;25.49
65637;DHT22;52327;42.622;23.316;2022-07-23T10:44:42;30.71;24.93
65637;DHT22;52327;42.622;23.316;2022-07-23T10:47:08;30.69;25.48
65637;DHT22;52327;42.622;23.316;2022-07-23T10:49:37;30.58;23.99
65637;DHT22;52327;42.622;23.316;2022-07-23T10:52:18;30.79;24.24
65637;DHT22;52327;42.622;23.316;2022-07-23T10:57:26;30.95;23.41
65637;DHT22;52327;42.622;23.316;2022-07-23T11:02:58;31.25;23.65
65637;DHT22;52327;42.622;23.316;2022-07-23T11:05:26;31.66;23.88
65637;DHT22;52327;42.622;23.316;2022-07-23T11:10:53;31.95;22.07
65637;DHT22;52327;42.622;23.316;2022-07-23T11:26:58;32.76;23.27
65637;DHT22;52327;42.622;23.316;2022-07-23T11:32:07;32.79;23.49
65637;DHT22;52327;42.622;23.316;2022-07-23T11:34:40;32.55;22.86
65637;DHT22;52327;42.622;23.316;2022-07-23T11:37:08;32.80;22.71
65637;DHT22;52327;42.622;23.316;2022-07-23T11:39:34;33.34;22.94
65637;DHT22;52327;42.622;23.316;2022-07-23T11:42:02;33.80;22.21
65637;DHT22;52327;42.622;23.316;2022-07-23T11:44:36;33.23;22.01
65637;DHT22;52327;42.622;23.316;2022-07-23T11:47:04;33.29;21.56
65637;DHT22;52327;42.622;23.316;2022-07-23T11:49:30;33.49;20.80
65637;DHT22;52327;42.622;23.316;2022-07-23T11:54:35;36.35;17.84
65637;DHT22;52327;42.622;23.316;2022-07-23T11:57:02;39.72;15.97
65637;DHT22;52327;42.622;23.316;2022-07-23T11:59:31;42.62;13.84
65637;DHT22;52327;42.622;23.316;2022-07-23T12:02:02;43.40;12.50
65637;DHT22;52327;42.622;23.316;2022-07-23T12:07:38;42.04;13.23
65637;DHT22;52327;42.622;23.316;2022-07-23T12:10:17;42.72;13.15
65637;DHT22;52327;42.622;23.316;2022-07-23T12:12:46;44.17;12.46
65637;DHT22;52327;42.622;23.316;2022-07-23T12:15:14;44.72;11.50
65637;DHT22;52327;42.622;23.316;2022-07-23T12:17:41;44.79;10.95
65637;DHT22;52327;42.622;23.316;2022-07-23T12:20:09;45.32;11.16
65637;DHT22;52327;42.622;23.316;2022-07-23T12:22:40;46.38;10.81
65637;DHT22;52327;42.622;23.316;2022-07-23T12:25:12;46.94;10.86
65637;DHT22;52327;42.622;23.316;2022-07-23T12:27:38;47.12;10.31
65637;DHT22;52327;42.622;23.316;2022-07-23T12:30:24;46.79;10.82
65637;DHT22;52327;42.622;23.316;2022-07-23T12:32:52;48.20;10.77
65637;DHT22;52327;42.622;23.316;2022-07-23T12:35:18;48.72;9.95
65637;DHT22;52327;42.622;23.316;2022-07-23T12:37:47;49.63;10.01
65637;DHT22;52327;42.622;23.316;2022-07-23T12:40:31;50.08;9.37
65637;DHT22;52327;42.622;23.316;2022-07-23T12:42:58;48.43;10.11
65637;DHT22;52327;42.622;23.316;2022-07-23T12:45:28;45.54;10.81
65637;DHT22;52327;42.622;23.316;2022-07-23T12:48:06;46.55;10.48
65637;DHT22;52327;42.622;23.316;2022-07-23T12:53:15;48.92;9.29
65637;DHT22;52327;42.622;23.316;2022-07-23T12:55:41;47.77;9.81
65637;DHT22;52327;42.622;23.316;2022-07-23T12:58:25;48.91;9.21
65637;DHT22;52327;42.622;23.316;2022-07-23T13:01:02;48.28;8.37
65637;DHT22;52327;42.622;23.316;2022-07-23T13:06:00;47.59;8.62
65637;DHT22;52327;42.622;23.316;2022-07-23T13:08:28;45.32;8.78
65637;DHT22;52327;42.622;23.316;2022-07-23T13:10:54;46.50;9.23
65637;DHT22;52327;42.622;23.316;2022-07-23T13:13:25;47.32;9.19
65637;DHT22;52327;42.622;23.316;2022-07-23T13:15:52;47.87;9.68
65637;DHT22;52327;42.622;23.316;2022-07-23T13:18:18;49.53;8.74
65637;DHT22;52327;42.622;23.316;2022-07-23T13:20:48;50.28;9.24
65637;DHT22;52327;42.622;23.316;2022-07-23T13:23:14;50.72;9.27
65637;DHT22;52327;42.622;23.316;2022-07-23T13:25:40;51.83;8.30
65637;DHT22;52327;42.622;23.316;2022-07-23T13:28:05;52.67;8.11
65637;DHT22;52327;42.622;23.316;2022-07-23T13:30:31;50.89;7.83
65637;DHT22;52327;42.622;23.316;2022-07-23T13:32:57;48.88;8.65
65637;DHT22;52327;42.622;23.316;2022-07-23T13:35:22;49.06;8.47
65637;DHT22;52327;42.622;23.316;2022-07-23T13:37:48;49.77;8.46
65637;DHT22;52327;42.622;23.316;2022-07-23T13:40:14;49.23;8.90
65637;DHT22;52327;42.622;23.316;2022-07-23T13:42:39;48.28;8.88
65637;DHT22;52327;42.622;23.316;2022-07-23T13:45:06;49.56;9.32
65637;DHT22;52327;42.622;23.316;2022-07-23T13:47:32;50.44;8.77
65637;DHT22;52327;42.622;23.316;2022-07-23T13:49:58;51.63;8.20
65637;DHT22;52327;42.622;23.316;2022-07-23T13:52:23;52.46;8.34
65637;DHT22;52327;42.622;23.316;2022-07-23T13:54:49;52.65;8.09
65637;DHT22;52327;42.622;23.316;2022-07-23T13:57:14;52.84;8.32
65637;DHT22;52327;42.622;23.316;2022-07-23T13:59:40;53.22;8.18
65637;DHT22;52327;42.622;23.316;2022-07-23T14:02:06;53.30;7.91
65637;DHT22;52327;42.622;23.316;2022-07-23T14:04:32;53.35;7.89
65637;DHT22;52327;42.622;23.316;2022-07-23T14:06:57;52.58;8.12
65637;DHT22;52327;42.622;23.316;2022-07-23T14:09:23;52.87;8.63
65637;DHT22;52327;42.622;23.316;2022-07-23T14:11:49;52.67;9.15
65637;DHT22;52327;42.622;23.316;2022-07-23T14:14:16;52.46;9.19
65637;DHT22;52327;42.622;23.316;2022-07-23T14:16:41;52.14;9.01
65637;DHT22;52327;42.622;23.316;2022-07-23T14:19:07;50.69;9.13
65637;DHT22;52327;42.622;23.316;2022-07-23T14:21:32;50.59;9.08
65637;DHT22;52327;42.622;23.316;2022-07-23T14:23:58;49.59;9.27
65637;DHT22;52327;42.622;23.316;2022-07-23T14:26:23;50.11;8.83
65637;DHT22;52327;42.622;23.316;2022-07-23T14:28:49;48.48;9.62
65637;DHT22;52327;42.622;23.316;2022-07-23T14:31:14;48.35;9.56
65637;DHT22;52327;42.622;23.316;2022-07-23T14:33:40;49.63;9.08
65637;DHT22;52327;42.622;23.316;2022-07-23T14:36:05;50.74;8.78
65637;DHT22;52327;42.622;23.316;2022-07-23T14:38:30;50.21;9.25
65637;DHT22;52327;42.622;23.316;2022-07-23T14:40:57;50.04;9.11
65637;DHT22;52327;42.622;23.316;2022-07-23T14:43:22;48.91;9.16
65637;DHT22;52327;42.622;23.316;2022-07-23T14:45:48;47.30;10.56
65637;DHT22;52327;42.622;23.316;2022-07-23T14:48:13;46.32;11.85
65637;DHT22;52327;42.622;23.316;2022-07-23T14:50:39;45.43;11.94
65637;DHT22;52327;42.622;23.316;2022-07-23T14:53:05;44.24;11.05
65637;DHT22;52327;42.622;23.316;2022-07-23T14:55:31;43.45;11.85
65637;DHT22;52327;42.622;23.316;2022-07-23T14:57:57;42.24;11.87
65637;DHT22;52327;42.622;23.316;2022-07-23T15:00:22;41.35;12.15
65637;DHT22;52327;42.622;23.316;2022-07-23T15:02:48;40.98;12.11
65637;DHT22;52327;42.622;23.316;2022-07-23T15:05:13;41.14;12.65
65637;DHT22;52327;42.622;23.316;2022-07-23T15:07:39;41.19;12.65
65637;DHT22;52327;42.622;23.316;2022-07-23T15:10:04;40.73;12.71
65637;DHT22;52327;42.622;23.316;2022-07-23T15:12:30;41.55;13.43
65637;DHT22;52327;42.622;23.316;2022-07-23T15:14:55;42.20;12.81
65637;DHT22;52327;42.622;23.316;2022-07-23T15:17:21;42.27;14.97
65637;DHT22;52327;42.622;23.316;2022-07-23T15:19:47;41.35;18.31
65637;DHT22;52327;42.622;23.316;2022-07-23T15:22:13;40.46;19.38
65637;DHT22;52327;42.622;23.316;2022-07-23T15:24:38;39.48;19.89
65637;DHT22;52327;42.622;23.316;2022-07-23T15:27:04;38.52;20.50
65637;DHT22;52327;42.622;23.316;2022-07-23T15:29:29;37.27;21.04
65637;DHT22;52327;42.622;23.316;2022-07-23T15:31:55;36.60;22.12
65637;DHT22;52327;42.622;23.316;2022-07-23T15:34:21;36.73;21.75
65637;DHT22;52327;42.622;23.316;2022-07-23T15:36:46;36.18;22.97
65637;DHT22;52327;42.622;23.316;2022-07-23T15:39:12;35.92;23.61
65637;DHT22;52327;42.622;23.316;2022-07-23T15:41:38;35.68;24.71
65637;DHT22;52327;42.622;23.316;2022-07-23T15:44:04;35.23;25.32
65637;DHT22;52327;42.622;23.316;2022-07-23T15:46:29;34.90;25.39
65637;DHT22;52327;42.622;23.316;2022-07-23T15:48:55;34.87;26.62
65637;DHT22;52327;42.622;23.316;2022-07-23T15:51:20;34.64;26.81
65637;DHT22;52327;42.622;23.316;2022-07-23T15:53:46;34.42;27.60
65637;DHT22;52327;42.622;23.316;2022-07-23T15:56:11;34.26;27.70
65637;DHT22;52327;42.622;23.316;2022-07-23T15:58:37;33.81;27.00
65637;DHT22;52327;42.622;23.316;2022-07-23T16:01:03;33.68;27.89
65637;DHT22;52327;42.622;23.316;2022-07-23T16:03:32;33.60;28.26
65637;DHT22;52327;42.622;23.316;2022-07-23T16:05:58;33.39;29.11
65637;DHT22;52327;42.622;23.316;2022-07-23T16:08:23;33.26;29.06